Time;durP1;ratioP1;P1;durP2;ratioP2;P2;SDS_P1;SDS_P2;PMS_P1;PMS_P2;Temp;Humidity;BMP_temperature;BMP_pressure;BME280_temperature;BME280_humidity;BME280_pressure;Samples;Min_cycle;Max_cycle;Signal;HPM_P1;HPM_P2
2024/01/14 00:00:32;;;;;;;17.77;11.48;;;;;;;;;;5067181;27;99131;-75
2024/01/14 00:03:00;;;;;;;19.80;11.57;;;;;;;;;;5066965;27;99389;-74
2024/01/14 00:05:26;;;;;;;18.63;12.32;;;;;;;;;;5068238;27;100057;-73
2024/01/14 00:07:53;;;;;;;19.65;12.00;;;;;;;;;;5069630;27;100085;-74
2024/01/14 00:10:20;;;;;;;16.20;10.23;;;;;;;;;;5070187;27;100212;-74
2024/01/14 00:12:46;;;;;;;16.40;11.25;;;;;;;;;;5072587;27;99950;-74
2024/01/14 00:15:14;;;;;;;20.40;11.88;;;;;;;;;;5067559;27;100375;-74
2024/01/14 00:17:41;;;;;;;16.05;11.40;;;;;;;;;;5066790;27;100039;-75
2024/01/14 00:20:08;;;;;;;23.33;13.05;;;;;;;;;;5063420;27;99926;-74
2024/01/14 00:22:34;;;;;;;23.83;13.60;;;;;;;;;;5056844;27;100438;-74
2024/01/14 00:25:01;;;;;;;17.63;11.75;;;;;;;;;;5060323;27;99047;-74
2024/01/14 00:27:27;;;;;;;16.52;11.63;;;;;;;;;;5066209;27;99608;-74
2024/01/14 00:29:57;;;;;;;21.35;12.35;;;;;;;;;;5067332;27;99034;-74
2024/01/14 00:32:24;;;;;;;18.00;12.00;;;;;;;;;;5066945;27;100216;-74
2024/01/14 00:34:51;;;;;;;21.13;12.85;;;;;;;;;;5054897;27;100885;-74
2024/01/14 00:37:17;;;;;;;27.13;12.57;;;;;;;;;;5046373;27;99224;-73
2024/01/14 00:39:44;;;;;;;15.52;11.45;;;;;;;;;;5046993;27;99059;-73
2024/01/14 00:42:10;;;;;;;21.38;13.38;;;;;;;;;;5066078;27;100718;-74
2024/01/14 00:44:40;;;;;;;22.25;12.15;;;;;;;;;;5066845;27;99892;-75
2024/01/14 00:47:07;;;;;;;19.88;12.48;;;;;;;;;;5066594;27;99976;-74
2024/01/14 00:49:33;;;;;;;15.95;10.60;;;;;;;;;;5066440;27;99425;-74
2024/01/14 00:52:00;;;;;;;17.60;10.50;;;;;;;;;;5050906;27;99873;-74
2024/01/14 00:54:26;;;;;;;20.17;11.93;;;;;;;;;;5053196;27;100397;-75
2024/01/14 00:56:53;;;;;;;15.70;11.27;;;;;;;;;;5062835;27;100848;-74
2024/01/14 00:59:19;;;;;;;17.42;10.57;;;;;;;;;;5059562;27;102164;-74
2024/01/14 01:01:46;;;;;;;18.92;12.45;;;;;;;;;;5054587;27;100552;-73
2024/01/14 01:04:13;;;;;;;19.42;11.75;;;;;;;;;;5054652;27;100255;-75
2024/01/14 01:06:40;;;;;;;21.35;12.52;;;;;;;;;;5055754;27;100137;-74
2024/01/14 01:09:06;;;;;;;17.10;11.73;;;;;;;;;;5054648;27;102254;-74
2024/01/14 01:11:33;;;;;;;25.42;12.48;;;;;;;;;;5057226;27;100051;-74
2024/01/14 01:13:59;;;;;;;23.45;12.68;;;;;;;;;;5055915;27;99972;-74
2024/01/14 01:16:26;;;;;;;25.38;13.48;;;;;;;;;;5052029;27;100838;-74
2024/01/14 01:18:53;;;;;;;19.30;12.85;;;;;;;;;;5061467;27;99310;-74
2024/01/14 01:21:22;;;;;;;25.77;14.30;;;;;;;;;;5050347;27;100248;-74
2024/01/14 01:23:49;;;;;;;23.58;15.13;;;;;;;;;;5065789;27;99831;-74
2024/01/14 01:26:15;;;;;;;36.33;15.77;;;;;;;;;;5055590;27;100287;-74
2024/01/14 01:28:42;;;;;;;22.48;13.70;;;;;;;;;;5062592;27;100210;-74
2024/01/14 01:31:08;;;;;;;25.38;14.35;;;;;;;;;;5064945;27;99013;-74
2024/01/14 01:33:35;;;;;;;22.30;14.00;;;;;;;;;;5066209;27;99160;-74
2024/01/14 01:36:02;;;;;;;30.40;15.85;;;;;;;;;;5065907;27;100236;-73
2024/01/14 01:38:28;;;;;;;29.15;15.05;;;;;;;;;;5069342;27;99055;-74
2024/01/14 01:40:55;;;;;;;31.98;15.85;;;;;;;;;;5066134;27;100492;-74
2024/01/14 01:43:21;;;;;;;31.17;16.27;;;;;;;;;;5047178;27;99940;-74
2024/01/14 01:45:48;;;;;;;28.92;15.70;;;;;;;;;;5044549;27;100104;-74
2024/01/14 01:48:15;;;;;;;29.67;17.27;;;;;;;;;;5064166;27;100757;-75
2024/01/14 01:50:45;;;;;;;36.95;18.30;;;;;;;;;;5066190;27;99993;-75
2024/01/14 01:53:12;;;;;;;36.42;18.50;;;;;;;;;;5064902;27;99906;-75
2024/01/14 01:55:38;;;;;;;29.73;17.25;;;;;;;;;;5066011;27;100045;-74
2024/01/14 01:58:05;;;;;;;34.60;17.15;;;;;;;;;;5065706;27;100101;-75
2024/01/14 02:00:34;;;;;;;31.30;16.13;;;;;;;;;;5056419;27;99967;-74
2024/01/14 02:03:01;;;;;;;35.92;17.05;;;;;;;;;;5053415;27;99041;-74
2024/01/14 02:05:28;;;;;;;35.70;18.13;;;;;;;;;;5056895;27;99689;-74
2024/01/14 02:07:55;;;;;;;33.65;17.70;;;;;;;;;;5058816;27;100314;-73
2024/01/14 02:10:21;;;;;;;33.80;17.40;;;;;;;;;;5061223;27;99771;-73
2024/01/14 02:12:49;;;;;;;36.90;19.42;;;;;;;;;;5060077;27;100721;-73
2024/01/14 02:15:15;;;;;;;33.95;17.92;;;;;;;;;;5057301;27;100081;-73
2024/01/14 02:17:42;;;;;;;46.22;20.40;;;;;;;;;;5059145;27;100863;-73
2024/01/14 02:20:09;;;;;;;43.90;20.38;;;;;;;;;;5059626;27;100193;-74
2024/01/14 02:22:39;;;;;;;40.67;18.63;;;;;;;;;;5064578;27;100231;-74
2024/01/14 02:25:06;;;;;;;35.17;19.05;;;;;;;;;;5062825;27;98879;-74
2024/01/14 02:27:32;;;;;;;45.22;19.35;;;;;;;;;;5060825;27;99295;-74
2024/01/14 02:30:03;;;;;;;35.08;19.38;;;;;;;;;;5056316;27;99781;-74
2024/01/14 02:32:29;;;;;;;33.22;17.58;;;;;;;;;;5058694;27;100218;-74
2024/01/14 02:34:56;;;;;;;36.10;16.30;;;;;;;;;;5056059;27;100989;-74
2024/01/14 02:37:22;;;;;;;35.78;16.75;;;;;;;;;;5062139;27;100562;-74
2024/01/14 02:39:49;;;;;;;34.72;16.83;;;;;;;;;;5062819;27;100254;-74
2024/01/14 02:42:16;;;;;;;33.10;18.00;;;;;;;;;;5057416;27;100276;-74
2024/01/14 02:44:42;;;;;;;35.22;17.35;;;;;;;;;;5071858;27;100070;-74
2024/01/14 02:47:09;;;;;;;32.78;18.35;;;;;;;;;;5064518;27;100304;-74
2024/01/14 02:49:35;;;;;;;36.60;17.80;;;;;;;;;;5059458;27;99894;-74
2024/01/14 02:52:02;;;;;;;30.45;17.10;;;;;;;;;;5054566;27;100116;-74
2024/01/14 02:54:29;;;;;;;33.25;17.42;;;;;;;;;;5055617;27;100194;-74
2024/01/14 02:56:55;;;;;;;45.28;19.38;;;;;;;;;;5060312;27;99883;-74
2024/01/14 02:59:24;;;;;;;50.72;19.58;;;;;;;;;;5060753;27;100310;-74
2024/01/14 03:01:51;;;;;;;37.88;18.80;;;;;;;;;;5057321;27;100005;-73
2024/01/14 03:04:17;;;;;;;45.10;21.40;;;;;;;;;;5058246;27;99197;-74
2024/01/14 03:06:44;;;;;;;39.63;19.50;;;;;;;;;;5063068;27;100118;-74
2024/01/14 03:09:10;;;;;;;46.50;21.67;;;;;;;;;;5057974;27;100047;-74
2024/01/14 03:11:37;;;;;;;46.30;21.80;;;;;;;;;;5060884;27;99821;-74
2024/01/14 03:14:04;;;;;;;45.83;21.40;;;;;;;;;;5055147;27;100286;-73
2024/01/14 03:16:30;;;;;;;38.53;19.10;;;;;;;;;;5056910;27;99900;-74
2024/01/14 03:18:57;;;;;;;45.72;19.42;;;;;;;;;;5059569;27;100119;-74
2024/01/14 03:21:23;;;;;;;41.50;18.27;;;;;;;;;;5057978;27;100073;-74
2024/01/14 03:23:50;;;;;;;50.78;18.80;;;;;;;;;;5054111;27;100168;-74
2024/01/14 03:26:16;;;;;;;51.63;19.75;;;;;;;;;;5060070;27;100155;-74
2024/01/14 03:28:43;;;;;;;35.65;16.73;;;;;;;;;;5059064;27;99879;-74
2024/01/14 03:31:13;;;;;;;29.80;15.05;;;;;;;;;;5058773;27;99965;-74
2024/01/14 03:33:40;;;;;;;32.60;17.05;;;;;;;;;;5056492;27;99231;-74
2024/01/14 03:36:06;;;;;;;33.28;17.85;;;;;;;;;;5054837;27;99988;-74
2024/01/14 03:38:33;;;;;;;36.72;17.65;;;;;;;;;;5056525;27;100119;-74
2024/01/14 03:40:59;;;;;;;38.38;18.25;;;;;;;;;;5064219;27;100177;-73
2024/01/14 03:43:26;;;;;;;31.42;16.88;;;;;;;;;;5056701;27;99945;-74
2024/01/14 03:45:52;;;;;;;31.85;17.58;;;;;;;;;;5053883;27;99804;-74
2024/01/14 03:48:19;;;;;;;39.67;17.95;;;;;;;;;;5060406;27;101053;-74
2024/01/14 03:50:45;;;;;;;50.22;19.48;;;;;;;;;;5055734;27;100570;-75
2024/01/14 03:53:12;;;;;;;39.80;19.63;;;;;;;;;;5057192;27;100248;-74
2024/01/14 03:55:38;;;;;;;41.13;19.15;;;;;;;;;;5052629;27;99986;-75
2024/01/14 03:58:05;;;;;;;46.15;19.55;;;;;;;;;;5051282;27;100164;-74
2024/01/14 04:00:31;;;;;;;39.33;17.48;;;;;;;;;;5055568;27;100378;-75
2024/01/14 04:02:58;;;;;;;39.17;19.23;;;;;;;;;;5052557;27;100587;-75
2024/01/14 04:05:24;;;;;;;38.28;18.15;;;;;;;;;;5057283;27;98957;-74
2024/01/14 04:07:51;;;;;;;37.80;18.38;;;;;;;;;;5056521;27;100817;-74
2024/01/14 04:10:17;;;;;;;46.13;21.35;;;;;;;;;;5059737;27;100083;-75
2024/01/14 04:12:43;;;;;;;37.63;18.67;;;;;;;;;;5053112;27;101566;-73
2024/01/14 04:15:10;;;;;;;43.15;19.92;;;;;;;;;;5051333;27;100338;-73
2024/01/14 04:17:37;;;;;;;37.50;18.55;;;;;;;;;;5056914;27;99991;-74
2024/01/14 04:20:04;;;;;;;39.35;17.05;;;;;;;;;;5056171;27;100258;-74
2024/01/14 04:22:30;;;;;;;41.03;16.48;;;;;;;;;;5058075;27;99969;-74
2024/01/14 04:24:56;;;;;;;38.80;16.17;;;;;;;;;;5053495;27;99992;-74
2024/01/14 04:27:23;;;;;;;35.03;15.85;;;;;;;;;;5052623;27;100228;-74
2024/01/14 04:29:49;;;;;;;33.53;16.27;;;;;;;;;;5052232;27;100010;-74
2024/01/14 04:32:16;;;;;;;39.30;18.77;;;;;;;;;;5055864;27;99809;-74
2024/01/14 04:34:42;;;;;;;41.67;20.05;;;;;;;;;;5061236;27;100610;-74
2024/01/14 04:37:09;;;;;;;45.20;20.77;;;;;;;;;;5056330;27;101486;-74
2024/01/14 04:39:35;;;;;;;47.33;21.10;;;;;;;;;;5054995;27;101273;-74
2024/01/14 04:42:02;;;;;;;51.72;22.17;;;;;;;;;;5049862;27;99101;-74
2024/01/14 04:44:28;;;;;;;41.17;22.52;;;;;;;;;;5052011;27;100057;-74
2024/01/14 04:46:55;;;;;;;42.03;21.33;;;;;;;;;;5053982;27;100228;-74
2024/01/14 04:49:22;;;;;;;39.67;20.38;;;;;;;;;;5055071;27;100013;-74
2024/01/14 04:51:48;;;;;;;42.42;22.33;;;;;;;;;;5053047;27;100040;-73
2024/01/14 04:54:15;;;;;;;44.97;23.63;;;;;;;;;;5067320;27;101639;-74
2024/01/14 04:56:41;;;;;;;48.58;22.33;;;;;;;;;;5066680;27;99633;-74
2024/01/14 04:59:08;;;;;;;49.10;23.25;;;;;;;;;;5066222;27;100129;-74
2024/01/14 05:01:34;;;;;;;47.17;23.90;;;;;;;;;;5053313;27;100758;-74
2024/01/14 05:04:02;;;;;;;49.17;23.73;;;;;;;;;;5052469;27;100624;-74
2024/01/14 05:06:29;;;;;;;44.10;23.25;;;;;;;;;;5054437;27;100427;-74
2024/01/14 05:08:56;;;;;;;45.53;24.50;;;;;;;;;;5054664;27;99984;-74
2024/01/14 05:11:23;;;;;;;43.55;23.88;;;;;;;;;;5055008;27;100291;-74
2024/01/14 05:13:50;;;;;;;50.08;24.02;;;;;;;;;;5054454;27;99672;-74
2024/01/14 05:16:16;;;;;;;50.35;25.17;;;;;;;;;;5055577;27;100221;-74
2024/01/14 05:18:43;;;;;;;47.08;25.27;;;;;;;;;;5058716;27;99965;-74
2024/01/14 05:21:19;;;;;;;46.13;23.48;;;;;;;;;;5055067;27;99722;-74
2024/01/14 05:23:46;;;;;;;51.85;23.80;;;;;;;;;;5061673;27;100073;-73
2024/01/14 05:26:12;;;;;;;48.63;24.50;;;;;;;;;;5054467;27;101020;-73
2024/01/14 05:28:38;;;;;;;55.67;24.00;;;;;;;;;;5054246;27;100001;-72
2024/01/14 05:31:05;;;;;;;45.67;23.10;;;;;;;;;;5050401;27;100033;-73
2024/01/14 05:33:32;;;;;;;50.92;25.60;;;;;;;;;;5052167;27;98549;-73
2024/01/14 05:35:58;;;;;;;55.90;24.17;;;;;;;;;;5052601;27;99442;-73
2024/01/14 05:38:25;;;;;;;56.47;24.35;;;;;;;;;;5055227;27;100261;-74
2024/01/14 05:40:51;;;;;;;53.28;24.85;;;;;;;;;;5052581;27;101838;-73
2024/01/14 05:43:18;;;;;;;53.97;24.55;;;;;;;;;;5053879;27;100196;-74
2024/01/14 05:45:44;;;;;;;46.65;23.90;;;;;;;;;;5053182;27;100559;-74
2024/01/14 05:48:10;;;;;;;44.70;23.63;;;;;;;;;;5051524;27;100215;-73
2024/01/14 05:50:37;;;;;;;48.80;22.52;;;;;;;;;;5051844;27;100746;-74
2024/01/14 05:53:04;;;;;;;44.22;23.15;;;;;;;;;;5053077;27;99647;-74
2024/01/14 05:55:30;;;;;;;50.65;24.92;;;;;;;;;;5064773;27;99974;-73
2024/01/14 05:57:56;;;;;;;52.63;25.00;;;;;;;;;;5062974;27;100082;-74
2024/01/14 06:00:23;;;;;;;35.08;17.35;;;;;;;;;;5054524;27;100006;-74
2024/01/14 06:02:49;;;;;;;50.60;24.17;;;;;;;;;;5050100;27;100601;-74
2024/01/14 06:05:16;;;;;;;45.30;25.80;;;;;;;;;;5054287;27;100371;-75
2024/01/14 06:07:48;;;;;;;53.00;25.77;;;;;;;;;;5051840;27;100060;-74
2024/01/14 06:10:15;;;;;;;51.63;25.30;;;;;;;;;;5052283;27;100395;-74
2024/01/14 06:12:41;;;;;;;48.80;25.70;;;;;;;;;;5054170;27;100105;-74
2024/01/14 06:15:08;;;;;;;43.75;22.20;;;;;;;;;;5054539;27;100155;-74
2024/01/14 06:17:34;;;;;;;49.30;26.23;;;;;;;;;;5054161;27;99968;-74
2024/01/14 06:20:01;;;;;;;48.83;25.60;;;;;;;;;;5055910;27;100259;-74
2024/01/14 06:22:28;;;;;;;43.10;23.52;;;;;;;;;;5055579;27;100037;-74
2024/01/14 06:24:55;;;;;;;59.67;26.50;;;;;;;;;;5053336;27;99347;-74
2024/01/14 06:27:21;;;;;;;47.25;25.25;;;;;;;;;;5055961;27;100009;-74
2024/01/14 06:29:48;;;;;;;47.25;23.33;;;;;;;;;;5056351;27;100157;-73
2024/01/14 06:32:15;;;;;;;45.33;25.02;;;;;;;;;;5060592;27;99432;-73
2024/01/14 06:34:42;;;;;;;51.35;24.02;;;;;;;;;;5051270;27;101571;-74
2024/01/14 06:37:08;;;;;;;51.85;25.40;;;;;;;;;;5050959;27;100348;-74
2024/01/14 06:39:35;;;;;;;49.25;25.02;;;;;;;;;;5059227;27;101026;-74
2024/01/14 06:42:01;;;;;;;46.80;24.55;;;;;;;;;;5054398;27;100059;-74
2024/01/14 06:44:28;;;;;;;52.47;27.50;;;;;;;;;;5050052;27;100308;-74
2024/01/14 06:46:54;;;;;;;45.83;25.55;;;;;;;;;;5050788;27;100805;-74
2024/01/14 06:49:21;;;;;;;47.58;24.52;;;;;;;;;;5052874;27;100562;-74
2024/01/14 06:51:48;;;;;;;46.45;23.30;;;;;;;;;;5048518;27;99436;-74
2024/01/14 06:54:14;;;;;;;50.00;26.13;;;;;;;;;;5048863;27;101280;-74
2024/01/14 06:56:46;;;;;;;48.53;26.55;;;;;;;;;;5056944;27;99992;-74
2024/01/14 06:59:13;;;;;;;48.50;24.42;;;;;;;;;;5056568;27;100248;-74
2024/01/14 07:01:40;;;;;;;62.00;27.75;;;;;;;;;;5055847;27;99095;-73
2024/01/14 07:04:06;;;;;;;62.45;33.20;;;;;;;;;;5061725;27;101063;-74
2024/01/14 07:06:33;;;;;;;64.82;32.28;;;;;;;;;;5055135;27;100770;-75
2024/01/14 07:08:59;;;;;;;57.10;25.70;;;;;;;;;;5054641;27;100035;-74
2024/01/14 07:11:26;;;;;;;59.90;27.73;;;;;;;;;;5063781;27;99410;-74
2024/01/14 07:13:52;;;;;;;54.85;29.13;;;;;;;;;;5059713;27;100078;-75
2024/01/14 07:16:19;;;;;;;50.97;26.33;;;;;;;;;;5052820;27;100221;-74
2024/01/14 07:18:45;;;;;;;58.05;29.80;;;;;;;;;;5056627;27;100175;-74
2024/01/14 07:21:12;;;;;;;53.53;28.40;;;;;;;;;;5055918;27;100177;-75
2024/01/14 07:23:39;;;;;;;56.65;27.23;;;;;;;;;;5048754;27;100294;-74
2024/01/14 07:26:16;;;;;;;67.13;27.33;;;;;;;;;;5065832;27;100235;-74
2024/01/14 07:28:44;;;;;;;52.60;27.47;;;;;;;;;;5052190;27;99496;-74
2024/01/14 07:31:12;;;;;;;58.15;26.38;;;;;;;;;;5062267;27;100114;-75
2024/01/14 07:33:39;;;;;;;58.13;25.65;;;;;;;;;;5066688;27;98886;-75
2024/01/14 07:36:06;;;;;;;51.47;26.33;;;;;;;;;;5056347;27;100019;-74
2024/01/14 07:38:32;;;;;;;55.13;26.45;;;;;;;;;;5055300;27;100168;-74
2024/01/14 07:40:59;;;;;;;60.13;28.73;;;;;;;;;;5058221;27;99930;-75
2024/01/14 07:43:25;;;;;;;53.42;26.45;;;;;;;;;;5054876;27;100365;-74
2024/01/14 07:45:52;;;;;;;57.28;25.65;;;;;;;;;;5067425;27;98705;-73
2024/01/14 07:48:19;;;;;;;51.65;25.80;;;;;;;;;;5059484;27;99028;-74
2024/01/14 07:50:46;;;;;;;46.65;24.73;;;;;;;;;;5050551;27;100100;-73
2024/01/14 07:53:13;;;;;;;64.30;29.13;;;;;;;;;;5061147;27;100412;-73
2024/01/14 07:55:39;;;;;;;47.67;25.00;;;;;;;;;;5063248;27;100956;-74
2024/01/14 07:58:06;;;;;;;59.70;29.30;;;;;;;;;;5047980;27;100302;-75
2024/01/14 08:00:32;;;;;;;43.45;21.25;;;;;;;;;;5067918;27;100398;-75
2024/01/14 08:02:59;;;;;;;59.70;27.45;;;;;;;;;;5067544;27;100135;-75
2024/01/14 08:05:25;;;;;;;52.00;23.83;;;;;;;;;;5066247;27;100133;-75
2024/01/14 08:07:52;;;;;;;49.08;24.65;;;;;;;;;;5070996;27;100050;-75
2024/01/14 08:10:18;;;;;;;55.42;26.10;;;;;;;;;;5067768;27;99997;-76
2024/01/14 08:12:44;;;;;;;55.38;26.60;;;;;;;;;;5061515;27;99129;-75
2024/01/14 08:15:11;;;;;;;61.72;25.48;;;;;;;;;;5045505;27;100198;-74
2024/01/14 08:17:37;;;;;;;41.08;24.15;;;;;;;;;;5046255;27;101142;-74
2024/01/14 08:20:05;;;;;;;57.45;26.08;;;;;;;;;;5050568;27;100089;-74
2024/01/14 08:22:32;;;;;;;53.25;26.02;;;;;;;;;;5049534;27;100136;-75
2024/01/14 08:24:59;;;;;;;48.75;24.63;;;;;;;;;;5052126;27;100453;-75
2024/01/14 08:27:25;;;;;;;56.13;25.88;;;;;;;;;;5051174;27;100272;-76
2024/01/14 08:29:51;;;;;;;54.33;25.65;;;;;;;;;;5053166;27;99990;-75
2024/01/14 08:32:18;;;;;;;56.72;25.33;;;;;;;;;;5045760;27;99796;-75
2024/01/14 08:34:44;;;;;;;48.03;22.55;;;;;;;;;;5052844;27;99082;-75
2024/01/14 08:37:11;;;;;;;62.47;26.65;;;;;;;;;;5048739;27;100608;-76
2024/01/14 08:39:37;;;;;;;50.88;24.08;;;;;;;;;;5049796;27;99731;-75
2024/01/14 08:42:04;;;;;;;57.80;25.77;;;;;;;;;;5050477;27;100106;-75
2024/01/14 08:44:30;;;;;;;41.92;22.63;;;;;;;;;;5050085;27;100333;-75
2024/01/14 08:46:57;;;;;;;52.15;25.02;;;;;;;;;;5049370;27;99928;-74
2024/01/14 08:49:24;;;;;;;56.58;24.52;;;;;;;;;;5046490;27;99937;-75
2024/01/14 08:51:51;;;;;;;41.28;22.63;;;;;;;;;;5052156;27;100240;-73
2024/01/14 08:54:18;;;;;;;51.20;25.70;;;;;;;;;;5047197;27;100189;-75
2024/01/14 08:56:45;;;;;;;44.28;22.38;;;;;;;;;;5053718;27;99297;-76
2024/01/14 08:59:12;;;;;;;40.92;21.65;;;;;;;;;;5046323;27;99243;-75
2024/01/14 09:01:38;;;;;;;45.35;21.83;;;;;;;;;;5049377;27;99591;-75
2024/01/14 09:04:05;;;;;;;40.22;20.35;;;;;;;;;;5050018;27;99392;-74
2024/01/14 09:06:31;;;;;;;44.85;20.75;;;;;;;;;;5062653;27;100233;-75
2024/01/14 09:08:58;;;;;;;40.65;22.23;;;;;;;;;;5065198;27;100793;-75
2024/01/14 09:11:24;;;;;;;39.88;21.80;;;;;;;;;;5066393;27;100604;-76
2024/01/14 09:13:51;;;;;;;46.22;23.73;;;;;;;;;;5054295;27;100330;-75
2024/01/14 09:16:17;;;;;;;52.92;24.65;;;;;;;;;;5052067;27;100196;-76
2024/01/14 09:18:44;;;;;;;48.85;22.17;;;;;;;;;;5046597;27;101140;-76
2024/01/14 09:21:10;;;;;;;39.95;21.05;;;;;;;;;;5052441;27;100164;-76
2024/01/14 09:23:37;;;;;;;46.00;23.17;;;;;;;;;;5049952;27;99758;-76
2024/01/14 09:26:04;;;;;;;43.58;22.05;;;;;;;;;;5045248;27;100324;-76
2024/01/14 09:28:31;;;;;;;31.83;16.17;;;;;;;;;;5045095;27;99923;-76
2024/01/14 09:30:57;;;;;;;47.88;23.48;;;;;;;;;;5045191;27;101057;-75
2024/01/14 09:33:23;;;;;;;45.15;22.98;;;;;;;;;;5052330;27;99813;-76
2024/01/14 09:35:50;;;;;;;39.33;21.85;;;;;;;;;;5061245;27;100116;-76
2024/01/14 09:38:16;;;;;;;33.55;17.75;;;;;;;;;;5045728;27;100272;-76
2024/01/14 09:40:43;;;;;;;48.08;23.92;;;;;;;;;;5054083;27;99719;-76
2024/01/14 09:43:10;;;;;;;38.42;21.50;;;;;;;;;;5056197;27;100177;-76
2024/01/14 09:45:40;;;;;;;41.97;21.85;;;;;;;;;;5045850;27;100212;-77
2024/01/14 09:48:15;;;;;;;45.42;21.92;;;;;;;;;;5062704;27;99287;-76
2024/01/14 09:50:42;;;;;;;34.33;17.48;;;;;;;;;;5064857;27;99215;-75
2024/01/14 09:53:11;;;;;;;41.47;22.50;;;;;;;;;;5050261;27;100234;-76
2024/01/14 09:55:38;;;;;;;39.92;21.30;;;;;;;;;;5060686;27;100045;-80
2024/01/14 09:58:06;;;;;;;46.92;21.73;;;;;;;;;;5064310;27;99315;-75
2024/01/14 10:00:38;;;;;;;47.13;20.55;;;;;;;;;;5065784;27;98926;-75
2024/01/14 10:03:05;;;;;;;41.92;21.05;;;;;;;;;;5065848;27;100128;-77
2024/01/14 10:05:33;;;;;;;36.20;20.00;;;;;;;;;;5064306;27;99299;-77
2024/01/14 10:07:59;;;;;;;35.67;20.63;;;;;;;;;;5064479;27;99153;-76
2024/01/14 10:10:28;;;;;;;36.40;21.25;;;;;;;;;;5066065;27;100287;-76
2024/01/14 10:12:55;;;;;;;35.10;20.83;;;;;;;;;;5050567;27;100254;-77
2024/01/14 10:15:22;;;;;;;21.75;13.13;;;;;;;;;;5053065;27;99232;-76
2024/01/14 10:17:48;;;;;;;45.90;21.80;;;;;;;;;;5051702;27;99428;-77
2024/01/14 10:20:15;;;;;;;39.72;19.40;;;;;;;;;;5074698;27;100050;-76
2024/01/14 10:22:42;;;;;;;45.95;23.08;;;;;;;;;;5058493;27;100291;-77
2024/01/14 10:25:09;;;;;;;43.72;22.60;;;;;;;;;;5045571;27;100184;-76
2024/01/14 10:27:35;;;;;;;43.45;22.17;;;;;;;;;;5050720;27;100675;-76
2024/01/14 10:30:08;;;;;;;44.05;22.00;;;;;;;;;;5051208;27;100324;-77
2024/01/14 10:32:35;;;;;;;38.40;22.48;;;;;;;;;;5053694;27;99872;-77
2024/01/14 10:35:23;;;;;;;38.05;21.50;;;;;;;;;;5049975;27;100449;-76
2024/01/14 10:37:50;;;;;;;40.13;23.48;;;;;;;;;;5048546;27;100012;-76
2024/01/14 10:40:17;;;;;;;40.70;20.83;;;;;;;;;;5055014;27;99726;-77
2024/01/14 10:42:44;;;;;;;37.45;21.55;;;;;;;;;;5047317;27;100406;-77
2024/01/14 10:45:10;;;;;;;39.03;21.33;;;;;;;;;;5049728;27;101370;-77
2024/01/14 10:47:42;;;;;;;43.03;22.35;;;;;;;;;;5051553;27;99972;-76
2024/01/14 10:50:09;;;;;;;29.35;16.90;;;;;;;;;;5056103;27;99356;-76
2024/01/14 10:52:38;;;;;;;36.10;19.70;;;;;;;;;;5065674;27;100176;-77
2024/01/14 10:55:13;;;;;;;37.40;21.63;;;;;;;;;;5049553;27;100329;-77
2024/01/14 10:57:42;;;;;;;38.70;21.23;;;;;;;;;;5053267;27;100509;-77
2024/01/14 11:00:09;;;;;;;33.13;18.48;;;;;;;;;;5054180;27;100206;-77
2024/01/14 11:02:36;;;;;;;24.75;17.25;;;;;;;;;;5050517;27;100360;-77
2024/01/14 11:05:04;;;;;;;32.95;18.95;;;;;;;;;;5048059;27;99960;-76
2024/01/14 11:07:32;;;;;;;33.00;17.25;;;;;;;;;;5051051;27;100444;-77
2024/01/14 11:09:59;;;;;;;26.83;17.13;;;;;;;;;;5050849;27;101005;-76
2024/01/14 11:12:26;;;;;;;33.65;17.55;;;;;;;;;;5059191;27;99051;-77
2024/01/14 11:15:12;;;;;;;27.48;17.80;;;;;;;;;;5051922;27;100222;-76
2024/01/14 11:17:44;;;;;;;32.88;16.98;;;;;;;;;;5048804;27;100342;-77
2024/01/14 11:20:16;;;;;;;28.90;16.67;;;;;;;;;;5047715;27;100115;-76
2024/01/14 11:22:43;;;;;;;29.88;17.58;;;;;;;;;;5048234;27;100252;-76
2024/01/14 11:25:21;;;;;;;29.17;16.45;;;;;;;;;;5055816;27;100230;-76
2024/01/14 11:27:48;;;;;;;24.40;17.58;;;;;;;;;;5055361;27;99883;-77
2024/01/14 11:30:17;;;;;;;30.40;18.35;;;;;;;;;;5052402;27;100320;-76
2024/01/14 11:32:44;;;;;;;32.30;18.08;;;;;;;;;;5047547;27;100223;-76
2024/01/14 11:35:31;;;;;;;31.92;17.52;;;;;;;;;;5052768;27;100606;-76
2024/01/14 11:37:57;;;;;;;32.42;18.23;;;;;;;;;;5052473;27;100410;-77
2024/01/14 11:40:25;;;;;;;29.15;17.10;;;;;;;;;;5059708;27;100040;-76
2024/01/14 11:43:14;;;;;;;36.53;20.98;;;;;;;;;;5054594;27;99949;-77
2024/01/14 11:45:41;;;;;;;45.00;21.17;;;;;;;;;;5048847;27;100155;-76
2024/01/14 11:48:10;;;;;;;37.35;21.10;;;;;;;;;;5055310;27;98539;-76
2024/01/14 11:50:37;;;;;;;38.08;22.15;;;;;;;;;;5046041;27;100447;-76
2024/01/14 11:53:07;;;;;;;38.78;22.05;;;;;;;;;;5047987;27;100366;-78
2024/01/14 11:55:33;;;;;;;43.20;22.30;;;;;;;;;;5052190;27;100164;-76
2024/01/14 11:58:10;;;;;;;39.65;22.77;;;;;;;;;;5049640;27;100436;-77
2024/01/14 12:00:38;;;;;;;47.22;24.80;;;;;;;;;;5052267;27;100987;-76
2024/01/14 12:03:15;;;;;;;51.38;25.08;;;;;;;;;;5049614;27;99990;-76
2024/01/14 12:05:42;;;;;;;46.45;23.42;;;;;;;;;;5046769;27;100139;-75
2024/01/14 12:08:09;;;;;;;48.00;23.92;;;;;;;;;;5054866;27;101294;-76
2024/01/14 12:10:36;;;;;;;51.08;23.35;;;;;;;;;;5059779;27;100168;-76
2024/01/14 12:13:04;;;;;;;42.95;23.55;;;;;;;;;;5048878;27;100073;-76
2024/01/14 12:15:30;;;;;;;47.22;23.40;;;;;;;;;;5054734;27;99927;-74
2024/01/14 12:18:03;;;;;;;;;;;;;;;;;;5065494;27;99480;-76
2024/01/14 12:20:30;;;;;;;39.53;21.45;;;;;;;;;;5059510;27;129569;-76
2024/01/14 12:22:57;;;;;;;40.70;22.15;;;;;;;;;;5058264;27;99930;-77
2024/01/14 12:25:24;;;;;;;65.95;22.35;;;;;;;;;;5052926;27;101454;-77
2024/01/14 12:27:55;;;;;;;38.20;22.23;;;;;;;;;;5048043;27;100279;-78
2024/01/14 12:30:22;;;;;;;47.05;19.95;;;;;;;;;;5049102;27;100235;-76
2024/01/14 12:32:49;;;;;;;32.47;14.95;;;;;;;;;;5047656;27;100149;-76
2024/01/14 12:35:15;;;;;;;39.20;20.67;;;;;;;;;;5052943;27;100602;-76
2024/01/14 12:37:42;;;;;;;41.38;19.30;;;;;;;;;;5051030;27;100506;-76
2024/01/14 12:40:09;;;;;;;40.85;20.60;;;;;;;;;;5051482;27;99932;-76
2024/01/14 12:42:35;;;;;;;28.27;17.33;;;;;;;;;;5054178;27;99296;-76
2024/01/14 12:45:04;;;;;;;32.40;17.15;;;;;;;;;;5047095;27;100430;-77
2024/01/14 12:47:30;;;;;;;20.88;12.32;;;;;;;;;;5048106;27;101372;-76
2024/01/14 12:49:59;;;;;;;30.00;15.93;;;;;;;;;;5046786;27;100234;-77
2024/01/14 12:52:25;;;;;;;28.33;16.08;;;;;;;;;;5060118;27;100563;-78
2024/01/14 12:54:52;;;;;;;25.25;15.75;;;;;;;;;;5046542;27;100412;-78
2024/01/14 12:57:19;;;;;;;27.17;14.98;;;;;;;;;;5047543;27;100171;-77
2024/01/14 12:59:50;;;;;;;29.38;14.88;;;;;;;;;;5045699;27;99886;-78
2024/01/14 13:02:17;;;;;;;27.48;16.17;;;;;;;;;;5051049;27;100061;-78
2024/01/14 13:04:44;;;;;;;24.35;14.07;;;;;;;;;;5048979;27;100568;-77
2024/01/14 13:07:10;;;;;;;25.23;14.57;;;;;;;;;;5049140;27;100109;-77
2024/01/14 13:09:39;;;;;;;21.92;14.63;;;;;;;;;;5047137;27;99726;-78
2024/01/14 13:12:06;;;;;;;33.50;17.70;;;;;;;;;;5044506;27;100325;-77
2024/01/14 13:14:33;;;;;;;35.17;17.70;;;;;;;;;;5051317;27;100526;-77
2024/01/14 13:16:59;;;;;;;36.00;19.05;;;;;;;;;;5047843;27;101109;-77
2024/01/14 13:19:26;;;;;;;34.60;20.10;;;;;;;;;;5046692;27;99425;-77
2024/01/14 13:21:53;;;;;;;30.67;18.30;;;;;;;;;;5044913;27;99240;-77
2024/01/14 13:24:19;;;;;;;31.30;18.90;;;;;;;;;;5066170;27;100300;-77
2024/01/14 13:26:45;;;;;;;34.70;19.00;;;;;;;;;;5053370;27;100097;-77
2024/01/14 13:29:12;;;;;;;30.50;18.77;;;;;;;;;;5044644;27;100372;-78
2024/01/14 13:31:39;;;;;;;34.60;17.60;;;;;;;;;;5052028;27;101469;-78
2024/01/14 13:34:07;;;;;;;32.72;17.83;;;;;;;;;;5054112;27;99837;-75
2024/01/14 13:36:34;;;;;;;33.15;17.80;;;;;;;;;;5063684;27;100510;-76
2024/01/14 13:39:03;;;;;;;36.65;22.02;;;;;;;;;;5048489;27;100254;-77
2024/01/14 13:41:30;;;;;;;29.35;17.05;;;;;;;;;;5052631;27;99664;-77
2024/01/14 13:43:57;;;;;;;27.08;16.48;;;;;;;;;;5047059;27;100624;-74
2024/01/14 13:46:42;;;;;;;29.63;18.45;;;;;;;;;;5051774;27;100426;-76
2024/01/14 13:49:08;;;;;;;35.00;17.92;;;;;;;;;;5048171;27;99980;-77
2024/01/14 13:51:37;;;;;;;31.48;18.02;;;;;;;;;;5050603;27;100482;-77
2024/01/14 13:54:06;;;;;;;30.52;18.17;;;;;;;;;;5047059;27;100136;-77
2024/01/14 13:56:39;;;;;;;38.72;19.90;;;;;;;;;;5054704;27;100250;-77
2024/01/14 13:59:08;;;;;;;36.70;17.83;;;;;;;;;;5050216;27;100789;-78
2024/01/14 14:01:38;;;;;;;32.50;18.90;;;;;;;;;;5050694;27;100195;-78
2024/01/14 14:04:07;;;;;;;30.05;17.65;;;;;;;;;;5049363;27;100027;-78
2024/01/14 14:06:35;;;;;;;21.30;16.13;;;;;;;;;;5055251;27;99011;-77
2024/01/14 14:09:06;;;;;;;32.58;17.92;;;;;;;;;;5046613;27;100150;-76